createdAt,value
2019-02-08T00:01:27.352Z,99.90
2019-02-08T00:03:59.966Z,99.90
2019-02-08T00:06:34.563Z,99.90
2019-02-08T00:09:18.668Z,99.90
2019-02-08T00:11:52.192Z,99.90
2019-02-08T00:14:25.721Z,99.90
2019-02-08T00:17:01.011Z,99.90
2019-02-08T00:19:33.237Z,99.90
2019-02-08T00:22:12.835Z,99.90
2019-02-08T00:24:48.259Z,99.90
2019-02-08T00:27:21.390Z,99.90
2019-02-08T00:29:53.811Z,99.90
2019-02-08T00:32:27.404Z,99.90
2019-02-08T00:35:00.638Z,99.90
2019-02-08T00:37:33.027Z,99.90
2019-02-08T00:40:08.259Z,99.90
2019-02-08T00:42:41.697Z,99.90
2019-02-08T00:45:20.384Z,99.90
2019-02-08T00:47:57.665Z,99.90
2019-02-08T00:50:31.005Z,99.90
2019-02-08T00:53:03.883Z,99.90
2019-02-08T00:55:37.790Z,99.90
2019-02-08T00:58:10.043Z,99.90
2019-02-08T01:00:43.770Z,99.90
2019-02-08T01:03:19.037Z,99.90
2019-02-08T01:05:52.542Z,99.90
2019-02-08T01:08:26.447Z,99.90
2019-02-08T01:11:05.388Z,99.90
2019-02-08T01:13:44.168Z,99.90
2019-02-08T01:16:16.655Z,99.90
2019-02-08T01:18:48.451Z,99.90
2019-02-08T01:21:21.468Z,99.90
2019-02-08T01:23:57.071Z,99.90
2019-02-08T01:26:34.527Z,99.90
2019-02-08T01:29:11.338Z,99.90
2019-02-08T01:31:47.236Z,99.90
2019-02-08T01:34:18.870Z,99.90
2019-02-08T01:36:51.039Z,99.90
2019-02-08T01:39:24.745Z,99.90
2019-02-08T01:41:58.067Z,99.90
2019-02-08T01:44:31.313Z,99.90
2019-02-08T01:47:03.721Z,99.90
2019-02-08T01:49:36.071Z,99.90
2019-02-08T01:52:09.113Z,99.90
2019-02-08T01:54:45.091Z,99.90
2019-02-08T01:57:19.948Z,99.90
2019-02-08T01:59:53.188Z,99.90
2019-02-08T02:02:26.539Z,99.90
2019-02-08T02:05:01.030Z,99.90
2019-02-08T02:07:39.766Z,99.90
2019-02-08T02:10:24.380Z,99.90
2019-02-08T02:12:59.829Z,99.90
2019-02-08T02:15:31.828Z,99.90
2019-02-08T02:18:04.569Z,99.90
2019-02-08T02:20:38.358Z,99.90
2019-02-08T02:23:12.605Z,99.90
2019-02-08T02:25:48.542Z,99.90
2019-02-08T02:28:23.088Z,99.90
2019-02-08T02:30:58.203Z,99.90
2019-02-08T02:33:31.981Z,99.90
2019-02-08T02:36:04.692Z,99.90
2019-02-08T02:38:37.690Z,99.90
2019-02-08T02:41:10.498Z,99.90
2019-02-08T02:43:43.568Z,99.90
2019-02-08T02:46:22.199Z,99.90
2019-02-08T02:48:53.833Z,99.90
2019-02-08T02:51:26.104Z,99.90
2019-02-08T02:54:04.985Z,99.90
2019-02-08T02:56:36.219Z,99.90
2019-02-08T02:59:11.378Z,99.90
2019-02-08T03:01:45.465Z,99.90
2019-02-08T03:04:24.262Z,99.90
2019-02-08T03:07:00.471Z,99.90
2019-02-08T03:09:34.165Z,99.90
2019-02-08T03:12:09.101Z,99.90
2019-02-08T03:14:45.492Z,99.90
2019-02-08T03:17:24.382Z,99.90
2019-02-08T03:19:57.918Z,99.90
2019-02-08T03:22:30.817Z,99.90
2019-02-08T03:25:03.728Z,99.90
2019-02-08T03:27:42.370Z,99.90
2019-02-08T03:33:17.538Z,99.90
2019-02-08T03:35:48.973Z,99.90
2019-02-08T03:38:20.386Z,99.90
2019-02-08T03:40:51.791Z,99.90
2019-02-08T03:43:23.257Z,99.90
2019-02-08T03:45:54.626Z,99.90
2019-02-08T03:48:26.053Z,99.90
2019-02-08T03:50:59.739Z,99.90
2019-02-08T03:53:31.223Z,99.90
2019-02-08T03:56:03.598Z,99.90
2019-02-08T03:58:35.038Z,99.90
2019-02-08T04:01:07.779Z,99.90
2019-02-08T04:03:39.379Z,99.90
2019-02-08T04:06:10.882Z,99.90
2019-02-08T04:08:42.346Z,99.90
2019-02-08T04:11:13.876Z,99.90
2019-02-08T04:13:45.488Z,99.90
2019-02-08T04:16:16.873Z,99.90
2019-02-08T04:18:48.326Z,99.90
2019-02-08T04:21:21.305Z,99.90
2019-02-08T04:23:53.943Z,99.90
2019-02-08T04:26:25.518Z,99.90
2019-02-08T04:28:56.874Z,99.90
2019-02-08T04:31:28.312Z,99.90
2019-02-08T04:34:05.092Z,99.90
2019-02-08T04:36:36.082Z,99.90
2019-02-08T04:39:09.348Z,99.90
2019-02-08T04:41:40.801Z,99.90
2019-02-08T04:44:14.317Z,99.90
2019-02-08T04:46:45.965Z,99.90
2019-02-08T04:49:17.365Z,99.90
2019-02-08T04:51:48.829Z,99.90
2019-02-08T04:54:20.414Z,99.90
2019-02-08T04:56:51.812Z,99.90
2019-02-08T04:59:23.583Z,99.90
2019-02-08T05:01:54.977Z,99.90
2019-02-08T05:04:26.489Z,99.90
2019-02-08T05:06:58.008Z,99.90
2019-02-08T05:09:29.422Z,99.90
2019-02-08T05:12:00.932Z,99.90
2019-02-08T05:14:32.333Z,99.90
2019-02-08T05:17:03.762Z,99.90
2019-02-08T05:19:35.212Z,99.90
2019-02-08T05:22:06.713Z,99.90
2019-02-08T05:24:45.676Z,99.90
2019-02-08T05:27:11.197Z,99.90
2019-02-08T05:29:42.621Z,99.90
2019-02-08T05:32:14.053Z,99.90
2019-02-08T05:34:45.414Z,99.90
2019-02-08T05:37:16.860Z,99.90
2019-02-08T05:39:48.344Z,99.90
2019-02-08T05:42:20.343Z,99.90
2019-02-08T05:44:51.755Z,99.90
2019-02-08T05:47:23.027Z,99.90
2019-02-08T05:49:54.444Z,99.90
2019-02-08T05:52:25.885Z,99.90
2019-02-08T05:54:57.258Z,99.90
2019-02-08T05:57:29.074Z,99.90
2019-02-08T06:00:00.643Z,99.90
2019-02-08T06:02:32.128Z,99.90
2019-02-08T06:05:03.608Z,99.90
2019-02-08T06:07:34.935Z,99.90
2019-02-08T06:10:09.285Z,99.90
2019-02-08T06:12:40.720Z,99.90
2019-02-08T06:15:15.808Z,99.90
2019-02-08T06:17:47.373Z,99.90
2019-02-08T06:20:20.511Z,99.90
2019-02-08T06:22:52.064Z,99.90
2019-02-08T06:25:23.653Z,99.90
2019-02-08T06:27:55.136Z,99.90
2019-02-08T06:30:26.618Z,99.90
2019-02-08T06:32:58.029Z,99.90
2019-02-08T06:35:30.179Z,99.90
2019-02-08T06:38:01.724Z,99.90
2019-02-08T06:40:34.116Z,99.90
2019-02-08T06:43:05.962Z,99.90
2019-02-08T06:45:37.447Z,99.90
2019-02-08T06:48:10.353Z,99.90
2019-02-08T06:50:41.782Z,99.90
2019-02-08T06:53:13.300Z,99.90
2019-02-08T06:55:44.727Z,99.90
2019-02-08T06:58:38.652Z,99.90
2019-02-08T07:01:44.147Z,99.90
2019-02-08T07:04:26.352Z,99.90
2019-02-08T07:07:14.053Z,99.90
2019-02-08T07:10:02.990Z,99.90
2019-02-08T07:13:02.513Z,99.90
2019-02-08T07:15:49.269Z,99.90
2019-02-08T07:18:54.721Z,99.90
2019-02-08T07:21:29.615Z,99.90
2019-02-08T07:24:12.465Z,99.90
2019-02-08T07:27:08.540Z,99.90
2019-02-08T07:29:58.174Z,99.90
2019-02-08T07:32:40.936Z,99.90
2019-02-08T07:35:30.600Z,99.90
2019-02-08T07:38:37.139Z,99.90
2019-02-08T07:41:32.492Z,99.90
2019-02-08T07:44:23.898Z,99.90
2019-02-08T07:47:34.594Z,99.90
2019-02-08T07:50:17.698Z,99.90
2019-02-08T07:53:06.935Z,99.90
2019-02-08T07:56:12.357Z,99.90
2019-02-08T07:58:57.689Z,99.90
2019-02-08T08:02:06.479Z,99.90
2019-02-08T08:05:02.656Z,99.90
2019-02-08T08:07:52.990Z,99.90
2019-02-08T08:10:53.058Z,99.90
2019-02-08T08:13:33.645Z,99.90
2019-02-08T08:16:34.679Z,99.90
2019-02-08T08:19:24.183Z,99.90
2019-02-08T08:22:19.360Z,99.90
2019-02-08T08:24:59.830Z,99.90
2019-02-08T08:28:00.417Z,99.90
2019-02-08T08:30:56.818Z,99.90
2019-02-08T08:33:39.576Z,99.90
2019-02-08T08:36:50.697Z,99.90
2019-02-08T08:40:31.660Z,99.90
2019-02-08T08:43:53.377Z,99.90
2019-02-08T08:47:05.737Z,99.90
2019-02-08T08:50:22.041Z,99.90
2019-02-08T08:54:01.485Z,99.90
2019-02-08T08:57:09.593Z,99.90
2019-02-08T09:00:58.707Z,99.90
2019-02-08T09:04:31.245Z,99.90
2019-02-08T09:08:01.431Z,99.90
2019-02-08T09:11:15.886Z,99.90
2019-02-08T09:14:35.508Z,99.90
2019-02-08T09:17:53.905Z,99.90
2019-02-08T09:21:35.812Z,99.90
2019-02-08T09:25:10.357Z,99.90
2019-02-08T09:28:46.153Z,99.90
2019-02-08T09:32:28.629Z,99.90
2019-02-08T09:36:09.222Z,99.90
2019-02-08T09:39:20.455Z,99.90
2019-02-08T09:43:03.009Z,99.90
2019-02-08T09:46:09.424Z,99.90
2019-02-08T09:49:56.203Z,99.90
2019-02-08T09:53:39.383Z,99.90
2019-02-08T09:56:56.309Z,99.90
2019-02-08T09:59:57.270Z,99.90
2019-02-08T10:03:12.383Z,99.90
2019-02-08T10:06:45.554Z,99.90
2019-02-08T10:10:10.324Z,99.90
2019-02-08T10:13:34.783Z,99.90
2019-02-08T10:16:53.186Z,99.90
2019-02-08T10:20:37.534Z,99.90
2019-02-08T10:24:16.560Z,99.90
2019-02-08T10:27:48.323Z,99.90
2019-02-08T10:31:10.119Z,99.90
2019-02-08T10:34:45.720Z,99.90
2019-02-08T10:37:52.498Z,99.90
2019-02-08T10:41:16.463Z,99.90
2019-02-08T10:44:36.247Z,99.90
2019-02-08T10:48:17.432Z,99.90
2019-02-08T10:51:59.681Z,99.90
2019-02-08T10:55:34.361Z,99.90
2019-02-08T10:59:09.827Z,99.90
2019-02-08T11:02:59.084Z,99.90
2019-02-08T11:06:39.541Z,99.90
2019-02-08T11:10:30.211Z,99.90
2019-02-08T11:13:54.758Z,99.90
2019-02-08T11:17:26.041Z,99.90
2019-02-08T11:19:57.715Z,99.90
2019-02-08T11:22:29.591Z,99.90
2019-02-08T11:25:00.964Z,99.90
2019-02-08T11:27:32.367Z,99.90
2019-02-08T11:30:04.601Z,99.90
2019-02-08T11:32:43.218Z,99.90
2019-02-08T11:35:10.463Z,99.90
2019-02-08T11:37:41.923Z,99.90
2019-02-08T11:40:19.225Z,99.90
2019-02-08T11:42:50.848Z,99.90
2019-02-08T11:45:22.525Z,99.90
2019-02-08T11:47:53.992Z,99.90
2019-02-08T11:50:25.542Z,99.90
2019-02-08T11:52:57.067Z,99.90
2019-02-08T11:55:28.472Z,99.90
2019-02-08T11:57:59.827Z,99.90
2019-02-08T12:00:36.343Z,99.90
2019-02-08T12:03:08.725Z,99.90
2019-02-08T12:05:40.252Z,99.90
2019-02-08T12:08:11.961Z,99.90
2019-02-08T12:10:43.404Z,99.90
2019-02-08T12:13:14.773Z,99.90
2019-02-08T12:15:46.169Z,99.90
2019-02-08T12:18:18.688Z,99.90
2019-02-08T12:20:50.136Z,99.90
2019-02-08T12:23:21.619Z,99.90
2019-02-08T12:25:54.854Z,99.90
2019-02-08T12:28:26.320Z,99.90
2019-02-08T12:30:57.856Z,99.90
2019-02-08T12:33:29.233Z,99.90
2019-02-08T12:36:00.667Z,99.90
2019-02-08T12:38:32.044Z,99.90
2019-02-08T12:41:09.631Z,99.90
2019-02-08T12:43:36.466Z,99.90
2019-02-08T12:46:07.983Z,99.90
2019-02-08T12:48:39.291Z,99.90
2019-02-08T12:51:13.238Z,99.90
2019-02-08T12:53:44.675Z,99.90
2019-02-08T12:56:16.099Z,99.90
2019-02-08T12:58:47.528Z,99.90
2019-02-08T13:01:18.932Z,99.90
2019-02-08T13:03:50.499Z,99.90
2019-02-08T13:06:22.028Z,99.90
2019-02-08T13:08:53.422Z,99.90
2019-02-08T13:11:27.512Z,99.90
2019-02-08T13:13:59.028Z,99.90
2019-02-08T13:16:30.534Z,99.90
2019-02-08T13:19:01.917Z,99.90
2019-02-08T13:21:33.278Z,99.90
2019-02-08T13:24:05.382Z,99.90
2019-02-08T13:26:36.854Z,99.90
2019-02-08T13:29:08.349Z,99.90
2019-02-08T13:31:39.810Z,99.90
2019-02-08T13:34:11.345Z,99.90
2019-02-08T13:36:42.967Z,99.90
2019-02-08T13:39:14.472Z,99.90
2019-02-08T13:41:45.893Z,99.90
2019-02-08T13:44:17.396Z,99.90
2019-02-08T13:46:49.103Z,99.90
2019-02-08T13:49:20.620Z,99.90
2019-02-08T13:51:52.457Z,99.90
2019-02-08T13:54:24.938Z,99.90
2019-02-08T13:57:00.662Z,99.90
2019-02-08T13:59:29.895Z,99.90
2019-02-08T14:02:04.201Z,99.90
2019-02-08T14:04:35.793Z,99.90
2019-02-08T14:07:07.381Z,99.90
2019-02-08T14:09:39.091Z,99.90
2019-02-08T14:12:10.753Z,99.90
2019-02-08T14:14:42.461Z,99.90
2019-02-08T14:17:14.242Z,99.90
2019-02-08T14:19:46.437Z,99.90
2019-02-08T14:22:18.585Z,99.90
2019-02-08T14:24:50.087Z,99.90
2019-02-08T14:27:21.554Z,99.90
2019-02-08T14:29:53.037Z,99.90
2019-02-08T14:32:24.484Z,99.90
2019-02-08T14:34:56.206Z,99.90
2019-02-08T14:37:27.704Z,99.90
2019-02-08T14:39:59.213Z,99.90
2019-02-08T14:42:30.691Z,99.90
2019-02-08T14:45:02.215Z,99.90
2019-02-08T14:47:33.866Z,99.90
2019-02-08T14:50:07.436Z,99.90
2019-02-08T14:52:38.926Z,99.90
2019-02-08T14:55:10.591Z,99.80
2019-02-08T14:57:42.078Z,99.50
2019-02-08T15:00:19.560Z,99.60
2019-02-08T15:02:51.253Z,99.30
2019-02-08T15:05:23.128Z,99.40
2019-02-08T15:07:54.670Z,99.70
2019-02-08T15:10:32.610Z,99.40
2019-02-08T15:13:04.076Z,99.20
2019-02-08T15:15:35.516Z,99.30
2019-02-08T15:18:07.996Z,99.60
2019-02-08T15:20:39.834Z,99.30
2019-02-08T15:23:12.605Z,99.30
2019-02-08T15:25:44.041Z,99.20
2019-02-08T15:28:15.496Z,99.10
2019-02-08T15:30:46.979Z,99.20
2019-02-08T15:33:18.439Z,98.80
2019-02-08T15:35:49.981Z,98.90
2019-02-08T15:38:21.418Z,98.90
2019-02-08T15:40:55.562Z,98.80
2019-02-08T15:43:28.291Z,99.00
2019-02-08T15:46:03.146Z,99.20
2019-02-08T15:48:34.822Z,99.20
2019-02-08T15:51:06.390Z,99.20
2019-02-08T15:53:37.933Z,99.10
2019-02-08T15:56:14.008Z,99.10
2019-02-08T15:58:45.504Z,99.50
2019-02-08T16:01:17.179Z,99.40
2019-02-08T16:03:48.630Z,99.70
2019-02-08T16:06:23.608Z,99.60
2019-02-08T16:08:55.135Z,99.70
2019-02-08T16:11:39.422Z,99.60
2019-02-08T16:14:12.023Z,99.70
2019-02-08T16:16:45.033Z,99.80
2019-02-08T16:19:16.543Z,99.90
2019-02-08T16:21:47.933Z,99.90
2019-02-08T16:24:19.459Z,99.90
2019-02-08T16:26:50.774Z,99.90
2019-02-08T16:29:22.148Z,99.90
2019-02-08T16:31:54.521Z,99.90
2019-02-08T16:34:25.941Z,99.90
2019-02-08T16:37:03.336Z,99.90
2019-02-08T16:39:30.773Z,99.90
2019-02-08T16:42:02.065Z,99.90
2019-02-08T16:44:33.495Z,99.90
2019-02-08T16:47:05.098Z,99.90
2019-02-08T16:49:36.538Z,99.90
2019-02-08T16:52:08.119Z,99.90
2019-02-08T16:54:39.547Z,99.90
2019-02-08T16:57:13.524Z,99.90
2019-02-08T16:59:48.493Z,99.90
2019-02-08T17:02:21.490Z,99.90
2019-02-08T17:04:55.584Z,99.90
2019-02-08T17:07:29.587Z,99.90
2019-02-08T17:10:05.604Z,99.90
2019-02-08T17:12:39.590Z,99.90
2019-02-08T17:15:17.641Z,99.90
2019-02-08T17:17:51.546Z,99.80
2019-02-08T17:20:31.609Z,99.60
2019-02-08T17:23:06.201Z,99.70
2019-02-08T17:25:40.352Z,99.60
2019-02-08T17:28:12.702Z,99.70
2019-02-08T17:30:44.151Z,99.70
2019-02-08T17:33:15.602Z,99.60
2019-02-08T17:35:47.134Z,99.90
2019-02-08T17:38:18.567Z,99.90
2019-02-08T17:40:50.374Z,99.90
2019-02-08T17:43:21.788Z,99.90
2019-02-08T17:45:54.302Z,99.90
2019-02-08T17:48:27.507Z,99.90
2019-02-08T17:50:58.893Z,99.80
2019-02-08T17:53:30.343Z,99.80
2019-02-08T17:56:01.855Z,99.80
2019-02-08T17:58:33.334Z,99.70
2019-02-08T18:01:04.840Z,99.50
2019-02-08T18:03:36.308Z,99.50
2019-02-08T18:06:07.748Z,99.30
2019-02-08T18:08:39.426Z,99.20
2019-02-08T18:11:10.894Z,99.30
2019-02-08T18:13:42.352Z,99.50
2019-02-08T18:16:13.775Z,99.60
2019-02-08T18:18:45.161Z,99.60
2019-02-08T18:21:16.610Z,99.60
2019-02-08T18:23:48.114Z,99.50
2019-02-08T18:26:19.569Z,99.90
2019-02-08T18:28:51.127Z,99.90
2019-02-08T18:31:22.924Z,99.90
2019-02-08T18:33:54.459Z,99.90
2019-02-08T18:36:25.993Z,99.90
2019-02-08T18:38:57.457Z,99.90
2019-02-08T18:41:31.887Z,99.90
2019-02-08T18:44:03.364Z,99.90
2019-02-08T18:46:34.885Z,99.90
2019-02-08T18:49:07.131Z,99.90
2019-02-08T18:51:38.631Z,99.90
2019-02-08T18:54:10.288Z,99.90
2019-02-08T18:56:41.594Z,99.90
2019-02-08T18:59:12.899Z,99.90
2019-02-08T19:01:44.343Z,99.90
2019-02-08T19:04:15.822Z,99.90
2019-02-08T19:06:47.474Z,99.90
2019-02-08T19:09:18.875Z,99.90
2019-02-08T19:11:50.401Z,99.90
2019-02-08T19:14:22.022Z,99.90
2019-02-08T19:16:53.624Z,99.90
2019-02-08T19:19:25.200Z,99.90
2019-02-08T19:21:56.620Z,99.90
2019-02-08T19:24:28.198Z,99.90
2019-02-08T19:26:59.642Z,99.90
2019-02-08T19:29:31.397Z,99.90
2019-02-08T19:32:02.771Z,99.90
2019-02-08T19:34:34.193Z,99.90
2019-02-08T19:37:05.974Z,99.90
2019-02-08T19:39:37.363Z,99.90
2019-02-08T19:42:08.783Z,99.90
2019-02-08T19:44:40.235Z,99.90
2019-02-08T19:47:11.692Z,99.90
2019-02-08T19:49:43.142Z,99.90
2019-02-08T19:52:14.520Z,99.90
2019-02-08T19:54:47.672Z,99.90
2019-02-08T19:57:19.143Z,99.90
2019-02-08T19:59:50.530Z,99.90
2019-02-08T20:02:21.978Z,99.90
2019-02-08T20:04:53.927Z,99.90
2019-02-08T20:07:25.338Z,99.90
2019-02-08T20:09:56.785Z,99.90
2019-02-08T20:12:28.475Z,99.90
2019-02-08T20:15:00.220Z,99.90
2019-02-08T20:17:31.606Z,99.90
2019-02-08T20:20:03.083Z,99.90
2019-02-08T20:22:35.455Z,99.90
2019-02-08T20:25:10.898Z,99.90
2019-02-08T20:27:42.411Z,99.90
2019-02-08T20:30:18.263Z,99.90
2019-02-08T20:32:49.842Z,99.90
2019-02-08T20:35:23.171Z,99.90
2019-02-08T20:37:54.568Z,99.90
2019-02-08T20:40:38.115Z,99.90
2019-02-08T20:43:09.500Z,99.90
2019-02-08T20:45:41.066Z,99.90
2019-02-08T20:48:18.871Z,99.90
2019-02-08T20:50:50.403Z,99.90
2019-02-08T20:53:22.106Z,99.90
2019-02-08T20:55:54.784Z,99.90
2019-02-08T20:58:26.428Z,99.90
2019-02-08T21:00:57.811Z,99.90
2019-02-08T21:03:29.265Z,99.90
2019-02-08T21:06:00.699Z,99.90
2019-02-08T21:08:32.239Z,99.90
2019-02-08T21:11:03.670Z,99.90
2019-02-08T21:13:35.103Z,99.90
2019-02-08T21:16:06.618Z,99.90
2019-02-08T21:18:38.040Z,99.90
2019-02-08T21:21:09.946Z,99.90
2019-02-08T21:23:41.364Z,99.90
2019-02-08T21:26:12.877Z,99.90
2019-02-08T21:28:44.218Z,99.90
2019-02-08T21:31:15.578Z,99.90
2019-02-08T21:33:47.029Z,99.90
2019-02-08T21:36:18.561Z,99.90
2019-02-08T21:38:50.338Z,99.90
2019-02-08T21:41:22.067Z,99.90
2019-02-08T21:43:53.532Z,99.90
2019-02-08T21:46:25.043Z,99.90
2019-02-08T21:48:56.506Z,99.90
2019-02-08T21:51:29.248Z,99.90
2019-02-08T21:54:01.041Z,99.90
2019-02-08T21:56:32.706Z,99.90
2019-02-08T21:59:06.275Z,99.90
2019-02-08T22:01:37.468Z,99.90
2019-02-08T22:04:08.904Z,99.90
2019-02-08T22:06:40.369Z,99.90
2019-02-08T22:09:11.987Z,99.90
2019-02-08T22:11:43.564Z,99.90
2019-02-08T22:14:15.011Z,99.90
2019-02-08T22:16:46.379Z,99.90
2019-02-08T22:19:17.801Z,99.90
2019-02-08T22:21:49.261Z,99.90
2019-02-08T22:24:20.686Z,99.90
2019-02-08T22:26:52.135Z,99.90
2019-02-08T22:29:23.543Z,99.90
2019-02-08T22:31:54.991Z,99.90
2019-02-08T22:34:26.431Z,99.90
2019-02-08T22:36:57.817Z,99.90
2019-02-08T22:39:29.275Z,99.90
2019-02-08T22:42:00.669Z,99.90
2019-02-08T22:44:32.100Z,99.90
2019-02-08T22:47:04.016Z,99.90
2019-02-08T22:49:35.393Z,99.90
2019-02-08T22:52:06.816Z,99.90
2019-02-08T22:54:38.211Z,99.90
2019-02-08T22:57:09.553Z,99.90
2019-02-08T22:59:44.153Z,99.90
2019-02-08T23:02:15.645Z,99.90
2019-02-08T23:04:47.517Z,99.90
2019-02-08T23:07:19.067Z,99.90
2019-02-08T23:09:50.923Z,99.90
2019-02-08T23:12:22.483Z,99.90
2019-02-08T23:14:54.027Z,99.90
2019-02-08T23:17:25.677Z,99.90
2019-02-08T23:19:57.142Z,99.90
2019-02-08T23:22:28.523Z,99.90
2019-02-08T23:24:59.951Z,99.90
2019-02-08T23:27:31.901Z,99.90
2019-02-08T23:30:03.315Z,99.90
2019-02-08T23:32:35.138Z,99.90
2019-02-08T23:35:07.601Z,99.90
2019-02-08T23:37:39.083Z,99.90
2019-02-08T23:40:10.572Z,99.90
2019-02-08T23:42:42.171Z,99.90
2019-02-08T23:45:13.735Z,99.90
2019-02-08T23:47:46.026Z,99.90
2019-02-08T23:50:17.484Z,99.90
2019-02-08T23:52:49.043Z,99.90
2019-02-08T23:55:22.354Z,99.90
2019-02-08T23:57:53.814Z,99.90
